createdAt,value
2023-03-29T00:01:45.156Z,-0.98
2023-03-29T00:04:12.963Z,-0.99
2023-03-29T00:06:41.891Z,-1.02
2023-03-29T00:09:09.546Z,-1.01
2023-03-29T00:11:41.323Z,-1.01
2023-03-29T00:14:11.019Z,-1.05
2023-03-29T00:16:37.828Z,-1.05
2023-03-29T00:19:05.064Z,-1.06
2023-03-29T00:21:32.093Z,-1.05
2023-03-29T00:23:59.610Z,-1.09
2023-03-29T00:26:26.487Z,-1.10
2023-03-29T00:28:53.880Z,-1.09
2023-03-29T00:31:20.899Z,-1.09
2023-03-29T00:33:47.819Z,-1.10
2023-03-29T00:36:15.468Z,-1.09
2023-03-29T00:38:42.522Z,-1.10
2023-03-29T00:41:10.076Z,-1.11
2023-03-29T00:44:01.766Z,-1.12
2023-03-29T00:47:08.596Z,-1.11
2023-03-29T00:50:41.612Z,-1.14
2023-03-29T00:54:27.546Z,-1.16
2023-03-29T00:58:04.511Z,-1.17
2023-03-29T01:08:52.810Z,-1.20
2023-03-29T01:27:15.637Z,-1.54
2023-03-29T01:29:58.645Z,-1.62
2023-03-29T01:32:47.993Z,-1.66
2023-03-29T01:35:23.975Z,-1.67
2023-03-29T01:38:07.339Z,-1.68
2023-03-29T01:40:35.773Z,-1.68
2023-03-29T01:43:19.045Z,-1.68
2023-03-29T01:45:55.566Z,-1.68
2023-03-29T01:48:32.704Z,-1.68
2023-03-29T01:51:15.067Z,-1.68
2023-03-29T01:53:50.948Z,-1.67
2023-03-29T01:56:23.035Z,-1.68
2023-03-29T01:58:57.117Z,-1.70
2023-03-29T02:01:30.043Z,-1.71
2023-03-29T02:04:03.371Z,-1.72
2023-03-29T02:06:36.206Z,-1.73
2023-03-29T02:09:05.046Z,-1.72
2023-03-29T02:11:41.957Z,-1.72
2023-03-29T02:14:22.276Z,-1.73
2023-03-29T02:16:50.444Z,-1.75
2023-03-29T02:19:19.781Z,-1.74
2023-03-29T02:22:07.228Z,-1.73
2023-03-29T02:24:39.385Z,-1.76
2023-03-29T02:27:09.763Z,-1.78
2023-03-29T02:29:37.968Z,-1.78
2023-03-29T02:32:16.827Z,-1.78
2023-03-29T02:34:56.568Z,-1.78
2023-03-29T02:37:30.344Z,-1.79
2023-03-29T02:40:00.629Z,-1.80
2023-03-29T02:42:29.247Z,-1.81
2023-03-29T02:45:02.416Z,-1.82
2023-03-29T02:47:35.969Z,-1.83
2023-03-29T02:50:04.948Z,-1.85
2023-03-29T02:52:39.402Z,-1.87
2023-03-29T02:55:14.683Z,-1.91
2023-03-29T02:57:44.094Z,-1.94
2023-03-29T03:00:14.643Z,-1.97
2023-03-29T03:37:02.479Z,-2.17
2023-03-29T03:39:34.546Z,-2.20
2023-03-29T03:42:07.258Z,-2.24
2023-03-29T03:44:39.493Z,-2.31
2023-03-29T03:47:20.804Z,-2.28
2023-03-29T03:49:49.004Z,-2.33
2023-03-29T03:52:21.341Z,-2.37
2023-03-29T03:54:50.310Z,-2.33
2023-03-29T03:57:38.091Z,-2.34
2023-03-29T04:00:19.397Z,-2.36
2023-03-29T04:02:49.989Z,-2.40
2023-03-29T04:05:20.069Z,-2.41
2023-03-29T04:07:48.955Z,-2.48
2023-03-29T04:10:20.862Z,-2.50
2023-03-29T04:12:52.938Z,-2.53
2023-03-29T04:15:22.265Z,-2.50
2023-03-29T04:22:22.808Z,-2.55
2023-03-29T04:26:24.614Z,-2.67
2023-03-29T04:34:14.676Z,-2.77
2023-03-29T04:37:10.708Z,-2.76
2023-03-29T04:39:49.956Z,-2.77
2023-03-29T04:43:32.913Z,-2.77
2023-03-29T04:46:34.365Z,-2.78
2023-03-29T04:49:44.053Z,-2.77
2023-03-29T04:52:36.004Z,-2.77
2023-03-29T04:55:11.616Z,-2.77
2023-03-29T04:59:08.309Z,-2.76
2023-03-29T05:06:59.413Z,-2.72
2023-03-29T05:11:08.701Z,-2.81
2023-03-29T05:15:20.563Z,-2.74
2023-03-29T05:19:01.840Z,-2.68
2023-03-29T05:21:33.543Z,-2.66
2023-03-29T05:24:04.770Z,-2.62
2023-03-29T05:27:02.331Z,-2.65
2023-03-29T05:29:32.977Z,-2.64
2023-03-29T05:32:25.797Z,-2.54
2023-03-29T05:34:54.441Z,-2.53
2023-03-29T05:37:23.026Z,-2.51
2023-03-29T05:40:05.953Z,-2.43
2023-03-29T05:42:40.320Z,-2.21
2023-03-29T05:45:11.678Z,-2.12
2023-03-29T05:47:41.743Z,-1.97
2023-03-29T05:50:16.504Z,-1.88
2023-03-29T05:52:44.829Z,-1.82
2023-03-29T05:55:16.253Z,-1.78
2023-03-29T05:57:44.512Z,-1.80
2023-03-29T06:00:21.932Z,-1.84
2023-03-29T06:02:59.279Z,-1.77
2023-03-29T06:05:35.788Z,-1.76
2023-03-29T06:08:04.575Z,-1.77
2023-03-29T06:10:39.008Z,-1.77
2023-03-29T06:13:19.143Z,-1.75
2023-03-29T06:15:47.607Z,-1.72
2023-03-29T06:18:17.693Z,-1.69
2023-03-29T06:20:50.991Z,-1.66
2023-03-29T06:23:21.011Z,-1.63
2023-03-29T06:25:51.675Z,-1.59
2023-03-29T06:28:20.361Z,-1.55
2023-03-29T06:30:49.384Z,-1.51
2023-03-29T06:33:19.004Z,-1.47
2023-03-29T06:35:51.842Z,-1.44
2023-03-29T06:41:21.664Z,-1.41
2023-03-29T06:44:13.791Z,-1.36
2023-03-29T06:47:00.661Z,-1.30
2023-03-29T06:49:29.180Z,-1.26
2023-03-29T06:52:06.242Z,-1.21
2023-03-29T06:54:35.290Z,-1.16
2023-03-29T06:57:05.431Z,-1.13
2023-03-29T06:59:38.363Z,-1.07
2023-03-29T07:02:34.158Z,-1.00
2023-03-29T07:05:12.284Z,-0.93
2023-03-29T07:08:05.563Z,-0.87
2023-03-29T07:10:54.412Z,-0.77
2023-03-29T07:13:43.991Z,-0.61
2023-03-29T07:16:15.278Z,-0.40
2023-03-29T07:33:19.548Z,1.86
2023-03-29T07:35:55.499Z,2.18
2023-03-29T07:38:23.992Z,2.43
2023-03-29T07:41:00.394Z,2.67
2023-03-29T07:43:37.493Z,2.96
2023-03-29T07:46:10.023Z,3.27
2023-03-29T07:48:41.640Z,3.92
2023-03-29T07:51:14.712Z,4.56
2023-03-29T07:53:45.141Z,5.23
2023-03-29T08:31:42.967Z,6.02
2023-03-29T08:34:14.961Z,6.19
2023-03-29T08:36:56.999Z,6.23
2023-03-29T08:39:31.772Z,6.32
2023-03-29T08:42:26.670Z,6.42
2023-03-29T08:45:22.669Z,6.33
2023-03-29T08:48:18.865Z,6.42
2023-03-29T08:51:01.422Z,6.64
2023-03-29T08:53:35.297Z,6.69
2023-03-29T08:56:20.616Z,6.83
2023-03-29T08:58:57.198Z,6.81
2023-03-29T09:01:36.315Z,6.94
2023-03-29T09:04:18.858Z,7.00
2023-03-29T09:07:13.555Z,6.86
2023-03-29T09:09:45.150Z,7.06
2023-03-29T09:12:52.982Z,7.23
2023-03-29T09:15:33.163Z,7.30
2023-03-29T09:18:30.599Z,7.31
2023-03-29T09:21:17.299Z,7.14
2023-03-29T09:24:10.239Z,7.18
2023-03-29T09:26:57.481Z,7.13
2023-03-29T09:29:37.512Z,7.26
2023-03-29T09:32:26.732Z,7.35
2023-03-29T09:35:21.432Z,7.48
2023-03-29T09:37:52.933Z,7.58
2023-03-29T09:40:27.687Z,7.72
2023-03-29T09:43:04.534Z,7.91
2023-03-29T09:45:35.513Z,8.07
2023-03-29T09:48:13.631Z,8.16
2023-03-29T09:50:48.618Z,8.24
2023-03-29T09:53:19.411Z,8.27
2023-03-29T09:55:57.053Z,8.12
2023-03-29T09:58:46.984Z,8.17
2023-03-29T10:01:17.726Z,8.19
2023-03-29T10:03:52.368Z,8.25
2023-03-29T10:06:23.813Z,8.32
2023-03-29T10:08:59.070Z,8.36
2023-03-29T10:11:34.867Z,8.41
2023-03-29T10:14:14.009Z,8.48
2023-03-29T10:16:46.247Z,8.60
2023-03-29T10:19:24.052Z,8.68
2023-03-29T10:21:54.089Z,8.64
2023-03-29T10:24:25.010Z,8.72
2023-03-29T10:27:06.926Z,8.86
2023-03-29T10:29:39.100Z,8.69
2023-03-29T10:32:25.436Z,8.68
2023-03-29T10:34:54.350Z,8.64
2023-03-29T10:37:29.769Z,8.63
2023-03-29T10:39:58.139Z,8.46
2023-03-29T10:42:26.824Z,8.42
2023-03-29T10:44:58.797Z,8.51
2023-03-29T10:47:34.460Z,8.62
2023-03-29T10:50:06.336Z,8.72
2023-03-29T10:52:34.741Z,8.70
2023-03-29T10:55:03.124Z,8.81
2023-03-29T10:57:37.327Z,8.78
2023-03-29T11:00:34.679Z,8.87
2023-03-29T11:03:22.924Z,8.98
2023-03-29T11:06:11.304Z,8.98
2023-03-29T11:08:57.808Z,8.98
2023-03-29T11:11:41.269Z,9.02
2023-03-29T11:14:25.602Z,9.09
2023-03-29T11:17:33.215Z,8.71
2023-03-29T11:20:25.070Z,8.57
2023-03-29T11:23:07.690Z,8.47
2023-03-29T11:25:57.385Z,8.48
2023-03-29T11:28:53.187Z,8.45
2023-03-29T11:31:57.371Z,8.62
2023-03-29T11:35:15.575Z,8.80
2023-03-29T11:39:19.227Z,8.98
2023-03-29T11:42:32.129Z,9.05
2023-03-29T11:45:49.054Z,9.09
2023-03-29T11:49:25.443Z,9.24
2023-03-29T11:53:39.708Z,9.37
2023-03-29T12:01:04.494Z,9.64
2023-03-29T12:04:44.968Z,9.55
2023-03-29T12:07:23.707Z,9.53
2023-03-29T12:10:13.861Z,9.40
2023-03-29T12:12:46.618Z,9.24
2023-03-29T12:15:22.797Z,9.17
2023-03-29T12:18:17.221Z,9.05
2023-03-29T12:20:49.761Z,8.92
2023-03-29T12:23:20.574Z,8.88
2023-03-29T12:26:12.354Z,8.82
2023-03-29T12:29:12.351Z,8.63
2023-03-29T12:32:01.679Z,8.60
2023-03-29T12:35:23.276Z,8.53
2023-03-29T12:38:24.138Z,8.49
2023-03-29T12:41:22.419Z,8.42
2023-03-29T12:44:05.397Z,8.42
2023-03-29T12:46:43.153Z,8.40
2023-03-29T12:49:28.112Z,8.40
2023-03-29T12:51:59.264Z,8.35
2023-03-29T12:54:34.077Z,8.31
2023-03-29T12:57:39.720Z,8.32
2023-03-29T13:00:23.746Z,8.29
2023-03-29T13:03:20.273Z,8.23
2023-03-29T13:49:16.418Z,8.42
2023-03-29T13:51:58.261Z,8.39
2023-03-29T14:32:01.774Z,8.34
2023-03-29T14:34:36.532Z,8.34
2023-03-29T14:37:30.408Z,8.32
2023-03-29T14:40:14.380Z,8.28
2023-03-29T14:42:42.338Z,8.32
2023-03-29T14:45:22.644Z,8.36
2023-03-29T14:48:54.569Z,8.38
2023-03-29T14:51:49.707Z,8.39
2023-03-29T14:54:28.534Z,8.42
2023-03-29T15:00:53.392Z,8.45
2023-03-29T15:03:31.553Z,8.45
2023-03-29T15:06:06.498Z,8.46
2023-03-29T15:08:38.146Z,8.45
2023-03-29T15:11:15.330Z,8.44
2023-03-29T15:13:43.560Z,8.42
2023-03-29T15:16:14.466Z,8.41
2023-03-29T15:18:43.659Z,8.38
2023-03-29T15:21:14.264Z,8.35
2023-03-29T15:24:02.334Z,8.32
2023-03-29T15:26:32.896Z,8.29
2023-03-29T15:29:16.588Z,8.25
2023-03-29T15:32:01.827Z,8.22
2023-03-29T15:34:30.841Z,8.21
2023-03-29T15:36:58.411Z,8.18
2023-03-29T15:39:28.798Z,8.17
2023-03-29T15:41:59.970Z,8.15
2023-03-29T15:44:29.487Z,8.15
2023-03-29T15:46:57.162Z,8.17
2023-03-29T15:49:24.435Z,8.15
2023-03-29T15:51:56.095Z,8.13
2023-03-29T15:54:23.949Z,8.12
2023-03-29T15:56:55.980Z,8.13
2023-03-29T15:59:25.149Z,8.13
2023-03-29T16:01:53.795Z,8.13
2023-03-29T16:04:21.705Z,8.13
2023-03-29T16:06:53.003Z,8.10
2023-03-29T16:09:22.956Z,8.08
2023-03-29T16:11:52.449Z,8.08
2023-03-29T16:14:24.467Z,8.08
2023-03-29T16:16:57.845Z,8.07
2023-03-29T16:19:29.507Z,8.05
2023-03-29T16:22:00.593Z,8.00
2023-03-29T16:24:31.877Z,7.97
2023-03-29T16:27:02.163Z,7.96
2023-03-29T16:29:30.030Z,7.94
2023-03-29T16:31:57.454Z,7.95
2023-03-29T16:34:24.513Z,7.94
2023-03-29T16:36:52.370Z,7.93
2023-03-29T16:39:23.203Z,7.92
2023-03-29T16:41:51.366Z,7.89
2023-03-29T16:44:23.971Z,7.87
2023-03-29T16:46:53.334Z,7.87
2023-03-29T16:49:23.843Z,7.87
2023-03-29T16:51:50.745Z,7.85
2023-03-29T16:54:18.394Z,7.84
2023-03-29T16:56:46.308Z,7.82
2023-03-29T16:59:13.182Z,7.81
2023-03-29T17:01:41.641Z,7.79
2023-03-29T17:04:10.105Z,7.77
2023-03-29T17:06:36.812Z,7.75
2023-03-29T17:09:04.418Z,7.74
2023-03-29T17:11:36.477Z,7.71
2023-03-29T17:14:03.450Z,7.69
2023-03-29T17:16:30.671Z,7.67
2023-03-29T17:19:01.152Z,7.64
2023-03-29T17:21:28.909Z,7.60
2023-03-29T17:23:55.503Z,7.57
2023-03-29T17:26:22.835Z,7.55
2023-03-29T17:28:51.900Z,7.54
2023-03-29T17:31:19.115Z,7.51
2023-03-29T17:33:46.933Z,7.50
2023-03-29T17:36:13.986Z,7.48
2023-03-29T17:38:43.433Z,7.45
2023-03-29T17:41:10.459Z,7.42
2023-03-29T17:43:37.356Z,7.37
2023-03-29T17:46:11.505Z,7.34
2023-03-29T17:48:51.860Z,7.31
2023-03-29T17:51:24.117Z,7.28
2023-03-29T17:53:56.516Z,7.26
2023-03-29T17:56:24.056Z,7.25
2023-03-29T17:58:51.400Z,7.22
2023-03-29T18:01:20.535Z,7.21
2023-03-29T18:03:47.756Z,7.18
2023-03-29T18:06:18.786Z,7.15
2023-03-29T18:08:45.900Z,7.11
2023-03-29T18:11:27.346Z,7.08
2023-03-29T18:13:57.973Z,7.04
2023-03-29T18:16:25.020Z,7.00
2023-03-29T18:18:51.962Z,6.95
2023-03-29T18:21:21.668Z,6.92
2023-03-29T18:23:51.523Z,6.89
2023-03-29T18:26:18.197Z,6.89
2023-03-29T18:28:46.887Z,6.88
2023-03-29T18:31:14.418Z,6.84
2023-03-29T18:33:42.034Z,6.79
2023-03-29T18:36:12.010Z,6.74
2023-03-29T18:38:42.560Z,6.72
2023-03-29T18:41:11.479Z,6.68
2023-03-29T18:43:39.154Z,6.65
2023-03-29T18:46:07.300Z,6.62
2023-03-29T18:48:38.038Z,6.61
2023-03-29T18:51:06.832Z,6.61
2023-03-29T18:53:38.076Z,6.58
2023-03-29T18:56:05.947Z,6.54
2023-03-29T18:58:34.234Z,6.51
2023-03-29T19:04:51.386Z,6.45
2023-03-29T19:11:05.873Z,6.42
2023-03-29T19:13:51.840Z,6.38
2023-03-29T19:16:25.805Z,6.37
2023-03-29T20:02:24.490Z,6.02
2023-03-29T20:05:09.916Z,6.02
2023-03-29T20:08:25.333Z,6.00
2023-03-29T20:35:24.151Z,6.02
2023-03-29T20:37:56.855Z,5.99
2023-03-29T20:40:49.104Z,5.98
2023-03-29T21:07:07.538Z,5.88
2023-03-29T21:09:39.268Z,5.85
2023-03-29T21:12:09.261Z,5.86
2023-03-29T21:14:38.922Z,5.84
2023-03-29T21:17:08.753Z,5.84
2023-03-29T21:19:38.795Z,5.84
2023-03-29T21:22:06.108Z,5.84
2023-03-29T21:24:35.779Z,5.84
2023-03-29T21:27:02.373Z,5.83
2023-03-29T21:29:29.105Z,5.83
2023-03-29T21:31:55.994Z,5.82
2023-03-29T21:34:22.687Z,5.83
2023-03-29T21:36:51.690Z,5.83
2023-03-29T21:39:21.779Z,5.81
2023-03-29T21:41:48.337Z,5.79
2023-03-29T21:44:18.184Z,5.78
2023-03-29T21:46:45.213Z,5.77
2023-03-29T21:49:11.742Z,5.77
2023-03-29T21:51:38.330Z,5.76
2023-03-29T21:54:05.176Z,5.75
2023-03-29T21:56:32.250Z,5.75
2023-03-29T21:58:58.670Z,5.73
2023-03-29T22:01:25.439Z,5.73
2023-03-29T22:03:52.308Z,5.72
2023-03-29T22:06:18.951Z,5.70
2023-03-29T22:08:52.377Z,5.70
2023-03-29T22:11:19.072Z,5.69
2023-03-29T22:13:50.902Z,5.68
2023-03-29T22:16:21.800Z,5.66
2023-03-29T22:18:48.892Z,5.63
2023-03-29T22:21:24.048Z,5.64
2023-03-29T22:23:55.376Z,5.62
2023-03-29T22:26:26.904Z,5.62
2023-03-29T22:28:54.161Z,5.62
2023-03-29T22:31:22.931Z,5.62
2023-03-29T22:33:50.193Z,5.62
2023-03-29T22:36:18.640Z,5.63
2023-03-29T22:38:46.495Z,5.62
2023-03-29T22:41:16.479Z,5.62
2023-03-29T22:43:44.447Z,5.61
2023-03-29T22:46:13.273Z,5.61
2023-03-29T22:48:40.705Z,5.61
2023-03-29T22:51:07.494Z,5.61
2023-03-29T22:53:36.956Z,5.60
2023-03-29T22:56:04.215Z,5.61
2023-03-29T22:58:43.391Z,5.62
2023-03-29T23:01:11.232Z,5.60
2023-03-29T23:03:49.716Z,5.59
2023-03-29T23:06:17.080Z,5.59
2023-03-29T23:08:43.899Z,5.58
2023-03-29T23:11:10.935Z,5.57
2023-03-29T23:13:38.033Z,5.57
2023-03-29T23:16:05.441Z,5.56
2023-03-29T23:18:34.036Z,5.56
2023-03-29T23:21:01.096Z,5.55
2023-03-29T23:23:28.461Z,5.54
2023-03-29T23:25:56.143Z,5.52
2023-03-29T23:28:26.698Z,5.52
2023-03-29T23:31:06.279Z,5.52
2023-03-29T23:37:50.978Z,5.51
2023-03-29T23:40:25.621Z,5.48
2023-03-29T23:43:15.177Z,5.48
2023-03-29T23:47:06.413Z,5.49
2023-03-29T23:53:32.132Z,5.48
2023-03-29T23:56:04.818Z,5.50
2023-03-29T23:58:39.572Z,5.50
